Time;durP1;ratioP1;P1;durP2;ratioP2;P2;SDS_P1;SDS_P2;PMS_P1;PMS_P2;Temp;Humidity;BMP_temperature;BMP_pressure;BME280_temperature;BME280_humidity;BME280_pressure;Samples;Min_cycle;Max_cycle;Signal;HPM_P1;HPM_P2
2021/10/15 00:00:35;;;;;;;13.13;4.50;;;13.40;37.00;;;;;;4994308;28;20961;-74
2021/10/15 00:03:01;;;;;;;12.82;4.90;;;13.30;36.80;;;;;;4994723;28;20477;-74
2021/10/15 00:05:28;;;;;;;10.70;4.50;;;13.30;36.80;;;;;;4983925;28;20850;-74
2021/10/15 00:07:54;;;;;;;10.48;4.13;;;13.40;36.60;;;;;;4976465;28;20805;-74
2021/10/15 00:10:19;;;;;;;13.53;4.90;;;13.30;36.80;;;;;;4977623;28;20381;-74
2021/10/15 00:12:45;;;;;;;12.03;4.50;;;13.30;36.60;;;;;;4986224;28;20402;-73
2021/10/15 00:15:11;;;;;;;14.20;4.90;;;13.30;36.60;;;;;;4999820;28;20375;-72
2021/10/15 00:17:36;;;;;;;10.77;4.20;;;13.20;36.80;;;;;;4997812;28;20870;-74
2021/10/15 00:20:03;;;;;;;10.83;5.00;;;13.20;37.00;;;;;;4994864;28;20401;-74
2021/10/15 00:22:29;;;;;;;12.32;4.78;;;13.20;36.40;;;;;;4979033;28;20429;-74
2021/10/15 00:24:55;;;;;;;12.50;5.07;;;13.10;37.00;;;;;;4974131;28;20467;-74
2021/10/15 00:27:20;;;;;;;11.23;4.50;;;13.10;36.80;;;;;;4984874;28;20402;-74
2021/10/15 00:29:46;;;;;;;9.27;5.00;;;13.20;36.70;;;;;;4993430;28;20836;-76
2021/10/15 00:32:11;;;;;;;10.03;4.50;;;13.20;36.40;;;;;;4993594;28;20487;-75
2021/10/15 00:34:39;;;;;;;11.38;4.85;;;13.20;36.50;;;;;;4993752;28;20462;-75
2021/10/15 00:37:05;;;;;;;9.60;4.50;;;13.10;36.40;;;;;;4992729;28;20493;-75
2021/10/15 00:39:30;;;;;;;11.18;4.30;;;13.10;36.80;;;;;;4993074;28;20761;-74
2021/10/15 00:41:56;;;;;;;9.40;4.68;;;13.00;37.20;;;;;;4988425;28;20414;-74
2021/10/15 00:44:21;;;;;;;9.07;4.40;;;13.00;37.40;;;;;;4993701;28;20394;-75
2021/10/15 00:46:47;;;;;;;14.90;5.10;;;13.00;37.20;;;;;;4993286;28;20755;-74
2021/10/15 00:49:14;;;;;;;11.37;4.63;;;13.00;36.90;;;;;;4992816;28;20413;-74
2021/10/15 00:51:42;;;;;;;9.65;5.25;;;12.90;37.30;;;;;;4992103;28;20804;-74
2021/10/15 00:54:10;;;;;;;12.23;5.10;;;13.00;37.00;;;;;;4993270;28;20871;-73
2021/10/15 00:56:36;;;;;;;14.98;5.38;;;12.90;37.20;;;;;;4992767;28;20410;-74
2021/10/15 00:59:02;;;;;;;13.18;5.40;;;12.90;37.20;;;;;;4991503;28;20475;-74
2021/10/15 01:01:28;;;;;;;15.55;5.30;;;12.80;37.50;;;;;;4993130;28;20822;-74
2021/10/15 01:03:58;;;;;;;8.70;4.60;;;12.70;37.60;;;;;;4990971;28;20410;-76
2021/10/15 01:06:23;;;;;;;15.38;5.20;;;12.70;38.10;;;;;;4993294;28;20434;-75
2021/10/15 01:08:49;;;;;;;11.30;5.30;;;12.80;37.80;;;;;;4992610;28;20383;-75
2021/10/15 01:11:16;;;;;;;11.73;5.13;;;12.70;37.80;;;;;;4992018;28;20748;-76
2021/10/15 01:13:42;;;;;;;10.88;5.00;;;12.70;37.80;;;;;;4992514;28;20485;-75
2021/10/15 01:16:12;;;;;;;11.60;5.00;;;12.80;37.50;;;;;;4992737;28;20990;-74
2021/10/15 01:18:40;;;;;;;11.90;4.90;;;12.70;37.30;;;;;;4991921;28;20426;-75
2021/10/15 01:21:07;;;;;;;12.50;5.50;;;12.80;37.40;;;;;;4995008;28;20410;-74
2021/10/15 01:23:33;;;;;;;10.43;6.40;;;12.70;38.00;;;;;;4994586;28;20394;-74
2021/10/15 01:25:59;;;;;;;18.58;6.45;;;12.60;38.10;;;;;;4993205;28;20386;-74
2021/10/15 01:28:26;;;;;;;13.10;5.47;;;12.60;37.80;;;;;;4992047;28;20798;-75
2021/10/15 01:30:53;;;;;;;10.25;5.70;;;12.60;38.80;;;;;;4979376;28;20396;-74
2021/10/15 01:33:19;;;;;;;13.23;6.18;;;12.50;39.10;;;;;;4988900;28;20402;-74
2021/10/15 01:35:44;;;;;;;15.77;6.00;;;12.40;39.00;;;;;;4995408;28;20410;-74
2021/10/15 01:38:10;;;;;;;11.93;5.57;;;12.40;38.90;;;;;;4993060;28;20752;-74
2021/10/15 01:40:36;;;;;;;10.73;6.10;;;12.30;39.60;;;;;;4992289;28;20570;-74
2021/10/15 01:43:02;;;;;;;15.37;6.50;;;12.20;40.00;;;;;;4992330;28;20494;-72
2021/10/15 01:45:30;;;;;;;13.43;6.50;;;12.10;40.90;;;;;;4989814;28;20382;-72
2021/10/15 01:47:56;;;;;;;13.80;6.30;;;12.10;40.40;;;;;;4989586;28;20398;-72
2021/10/15 01:50:23;;;;;;;15.40;6.30;;;12.00;40.60;;;;;;4992049;28;20386;-72
2021/10/15 01:52:49;;;;;;;11.85;6.28;;;11.90;41.50;;;;;;4991141;28;20410;-72
2021/10/15 01:55:15;;;;;;;11.65;6.65;;;11.80;42.40;;;;;;4989766;28;20402;-71
2021/10/15 01:57:41;;;;;;;13.53;6.73;;;11.70;43.00;;;;;;4990420;28;20386;-72
2021/10/15 02:00:09;;;;;;;15.13;6.40;;;11.70;43.10;;;;;;4970882;28;20891;-72
2021/10/15 02:02:35;;;;;;;17.00;6.18;;;11.70;43.10;;;;;;4971549;28;20424;-72
2021/10/15 02:05:01;;;;;;;9.00;5.90;;;11.80;43.00;;;;;;4972103;28;20392;-72
2021/10/15 02:07:27;;;;;;;15.60;6.20;;;11.70;43.10;;;;;;4981399;28;20503;-72
2021/10/15 02:09:53;;;;;;;13.30;5.90;;;11.70;43.40;;;;;;4990814;28;20490;-71
2021/10/15 02:12:18;;;;;;;14.40;6.80;;;11.80;43.40;;;;;;4991336;28;20759;-71
2021/10/15 02:14:44;;;;;;;9.45;5.88;;;11.70;43.60;;;;;;4991362;28;20398;-71
2021/10/15 02:17:10;;;;;;;17.33;6.60;;;11.70;43.90;;;;;;4991500;28;20752;-73
2021/10/15 02:19:36;;;;;;;10.43;5.27;;;11.70;43.80;;;;;;4991205;28;20422;-74
2021/10/15 02:22:02;;;;;;;20.40;5.90;;;11.70;44.10;;;;;;4990546;28;20461;-72
2021/10/15 02:24:28;;;;;;;13.18;6.57;;;11.80;43.80;;;;;;4990527;28;20744;-73
2021/10/15 02:26:53;;;;;;;11.57;6.63;;;11.80;43.70;;;;;;4991253;28;20386;-73
2021/10/15 02:29:19;;;;;;;14.40;6.57;;;11.80;43.10;;;;;;4990535;28;20482;-71
2021/10/15 02:31:45;;;;;;;16.55;7.05;;;11.90;43.00;;;;;;4972303;28;20396;-70
2021/10/15 02:34:10;;;;;;;14.87;6.60;;;11.90;43.00;;;;;;4975717;28;20384;-71
2021/10/15 02:36:36;;;;;;;22.53;7.73;;;12.00;42.50;;;;;;4988840;28;20394;-71
2021/10/15 02:39:02;;;;;;;14.97;6.37;;;11.90;42.70;;;;;;4995116;28;20383;-72
2021/10/15 02:41:28;;;;;;;14.00;6.53;;;12.00;42.00;;;;;;4994724;28;20419;-72
2021/10/15 02:43:54;;;;;;;12.93;6.82;;;12.00;42.30;;;;;;4993792;28;20755;-72
2021/10/15 02:46:19;;;;;;;13.47;6.33;;;12.00;42.50;;;;;;4995141;28;20819;-73
2021/10/15 02:48:45;;;;;;;15.83;6.83;;;12.10;41.70;;;;;;4994928;28;20382;-73
2021/10/15 02:51:12;;;;;;;19.47;6.50;;;12.20;41.30;;;;;;5008759;23;20450;-78
2021/10/15 02:53:38;;;;;;;15.93;6.57;;;12.10;42.00;;;;;;5036615;28;20403;-78
2021/10/15 02:56:05;;;;;;;13.82;6.40;;;12.00;42.10;;;;;;5035117;28;20406;-77
2021/10/15 02:58:30;;;;;;;16.27;6.53;;;12.00;42.50;;;;;;5016153;28;20420;-77
2021/10/15 03:00:57;;;;;;;12.50;6.50;;;12.10;41.80;;;;;;5014533;28;20912;-72
2021/10/15 03:03:22;;;;;;;13.02;6.68;;;12.00;41.70;;;;;;5015108;28;20384;-74
2021/10/15 03:05:48;;;;;;;15.52;6.60;;;12.00;41.70;;;;;;5013979;28;20447;-75
2021/10/15 03:08:13;;;;;;;14.35;6.60;;;12.00;42.70;;;;;;5019694;28;20380;-74
2021/10/15 03:10:39;;;;;;;13.82;6.78;;;12.00;42.20;;;;;;5019942;28;20400;-74
2021/10/15 03:13:05;;;;;;;12.82;6.85;;;12.00;42.30;;;;;;5022116;28;20397;-74
2021/10/15 03:15:31;;;;;;;13.25;6.03;;;12.00;42.10;;;;;;5022126;28;20381;-75
2021/10/15 03:17:56;;;;;;;14.50;6.43;;;12.10;42.40;;;;;;5013869;28;20718;-75
2021/10/15 03:20:22;;;;;;;15.37;6.90;;;12.00;42.10;;;;;;5029217;28;20401;-75
2021/10/15 03:22:48;;;;;;;19.10;6.67;;;12.00;42.40;;;;;;5013639;28;20904;-74
2021/10/15 03:25:14;;;;;;;16.02;6.90;;;12.10;41.80;;;;;;5013979;28;20389;-75
2021/10/15 03:27:39;;;;;;;17.98;6.65;;;12.10;41.90;;;;;;5013462;28;20902;-75
2021/10/15 03:30:06;;;;;;;12.15;7.00;;;12.00;42.40;;;;;;5020354;28;20395;-75
2021/10/15 03:32:32;;;;;;;16.35;6.65;;;12.00;42.50;;;;;;5030544;28;20856;-75
2021/10/15 03:34:58;;;;;;;18.98;7.35;;;12.10;42.00;;;;;;5013557;28;20463;-75
2021/10/15 03:37:23;;;;;;;11.45;6.53;;;12.10;41.80;;;;;;5013486;28;20449;-75
2021/10/15 03:39:50;;;;;;;12.10;6.67;;;12.00;42.20;;;;;;5013699;28;20384;-73
2021/10/15 03:42:16;;;;;;;11.70;6.50;;;12.00;43.10;;;;;;5012748;28;20828;-73
2021/10/15 03:44:41;;;;;;;13.23;7.40;;;12.00;42.90;;;;;;5012056;28;20393;-75
2021/10/15 03:47:07;;;;;;;17.00;6.78;;;12.10;43.00;;;;;;5013146;28;20471;-74
2021/10/15 03:49:33;;;;;;;16.83;6.90;;;12.10;42.30;;;;;;5013159;28;20392;-74
2021/10/15 03:51:58;;;;;;;12.57;6.97;;;12.20;41.90;;;;;;5012395;28;20420;-74
2021/10/15 03:54:24;;;;;;;9.38;6.25;;;12.20;42.30;;;;;;5013232;28;20396;-74
2021/10/15 03:56:49;;;;;;;15.63;7.20;;;12.30;41.10;;;;;;5012942;28;20467;-74
2021/10/15 03:59:15;;;;;;;12.10;6.77;;;12.30;42.00;;;;;;5013223;28;20421;-75
2021/10/15 04:01:41;;;;;;;11.90;6.50;;;12.30;41.20;;;;;;5006855;28;20406;-74
2021/10/15 04:04:06;;;;;;;12.73;7.33;;;12.20;42.00;;;;;;4993564;28;20410;-75
2021/10/15 04:06:32;;;;;;;13.87;7.60;;;12.20;41.90;;;;;;5008306;28;20507;-75
2021/10/15 04:08:57;;;;;;;16.27;7.35;;;12.20;41.90;;;;;;5013121;28;20385;-75
2021/10/15 04:11:23;;;;;;;12.68;7.07;;;12.30;42.00;;;;;;5011407;28;20464;-75
2021/10/15 04:13:48;;;;;;;14.70;7.10;;;12.20;41.60;;;;;;5012770;28;20486;-74
2021/10/15 04:16:14;;;;;;;12.53;7.33;;;12.20;41.50;;;;;;5012364;28;20407;-73
2021/10/15 04:18:40;;;;;;;12.30;7.00;;;12.20;41.50;;;;;;5012549;28;20392;-74
2021/10/15 04:21:06;;;;;;;19.00;7.80;;;12.20;41.90;;;;;;5012263;28;20455;-73
2021/10/15 04:23:31;;;;;;;10.98;6.80;;;12.20;42.20;;;;;;5012196;28;20476;-74
2021/10/15 04:25:57;;;;;;;17.88;7.00;;;12.20;41.70;;;;;;5012132;28;20385;-75
2021/10/15 04:28:22;;;;;;;14.27;6.90;;;12.20;41.60;;;;;;5012346;28;20838;-75
2021/10/15 04:30:48;;;;;;;11.17;6.47;;;12.20;41.30;;;;;;5014125;28;20484;-74
2021/10/15 04:33:14;;;;;;;14.13;6.95;;;12.30;41.00;;;;;;5011768;28;20404;-73
2021/10/15 04:35:40;;;;;;;18.85;7.55;;;12.30;41.10;;;;;;5012260;28;20435;-76
2021/10/15 04:38:05;;;;;;;14.05;6.93;;;12.20;41.00;;;;;;5011851;28;20392;-74
2021/10/15 04:40:31;;;;;;;10.30;6.63;;;12.30;41.30;;;;;;5011968;28;20404;-75
2021/10/15 04:42:57;;;;;;;16.43;6.67;;;12.20;41.00;;;;;;5011946;28;20385;-74
2021/10/15 04:45:22;;;;;;;14.13;7.53;;;12.20;41.00;;;;;;5011769;28;20405;-75
2021/10/15 04:47:48;;;;;;;16.67;6.90;;;12.20;42.20;;;;;;5013952;28;20400;-75
2021/10/15 04:50:13;;;;;;;18.60;7.47;;;12.20;41.20;;;;;;5014472;28;20447;-75
2021/10/15 04:52:39;;;;;;;14.23;7.00;;;12.20;41.70;;;;;;5014464;28;20884;-75
2021/10/15 04:55:05;;;;;;;16.13;7.07;;;12.20;41.70;;;;;;5011591;28;20817;-74
2021/10/15 04:57:31;;;;;;;17.10;6.72;;;12.20;41.60;;;;;;5011879;28;20480;-74
2021/10/15 04:59:56;;;;;;;14.50;6.90;;;12.20;41.70;;;;;;5011825;28;20484;-75
2021/10/15 05:02:22;;;;;;;16.37;7.70;;;12.30;41.50;;;;;;5011589;28;20408;-75
2021/10/15 05:04:47;;;;;;;14.83;6.63;;;12.40;41.20;;;;;;5012386;28;20393;-75
2021/10/15 05:07:13;;;;;;;23.17;7.80;;;12.40;40.90;;;;;;5013701;28;20397;-75
2021/10/15 05:09:38;;;;;;;11.88;6.80;;;12.30;41.20;;;;;;5012856;28;20432;-74
2021/10/15 05:12:06;;;;;;;15.65;6.82;;;12.30;42.10;;;;;;5011402;28;20901;-75
2021/10/15 05:14:35;;;;;;;13.57;6.97;;;12.20;42.10;;;;;;5026767;28;20405;-75
2021/10/15 05:17:02;;;;;;;37.97;7.18;;;12.30;42.20;;;;;;5011636;28;20455;-74
2021/10/15 05:19:27;;;;;;;11.52;6.80;;;12.30;42.00;;;;;;5012035;28;20392;-75
2021/10/15 05:21:53;;;;;;;19.42;7.75;;;12.40;41.80;;;;;;5013545;28;20486;-75
2021/10/15 05:24:19;;;;;;;17.07;6.90;;;12.30;42.20;;;;;;5011987;28;20500;-74
2021/10/15 05:26:44;;;;;;;14.02;7.20;;;12.30;42.40;;;;;;5012954;28;20408;-75
2021/10/15 05:29:10;;;;;;;12.63;7.18;;;12.30;42.20;;;;;;5013787;28;20404;-75
2021/10/15 05:31:35;;;;;;;105.90;67.13;;;12.30;42.80;;;;;;5017469;28;20472;-74
2021/10/15 05:34:01;;;;;;;36.80;21.00;;;12.40;44.30;;;;;;5011071;28;20413;-76
2021/10/15 05:36:27;;;;;;;181.32;110.88;;;12.40;43.10;;;;;;5013775;28;20396;-78
2021/10/15 05:38:53;;;;;;;31.70;18.60;;;12.50;44.70;;;;;;5013541;28;20491;-78
2021/10/15 05:41:19;;;;;;;29.43;17.63;;;12.50;43.00;;;;;;5011704;28;20421;-78
2021/10/15 05:43:44;;;;;;;67.80;41.20;;;12.50;43.50;;;;;;5009628;28;20401;-78
2021/10/15 05:46:10;;;;;;;52.23;31.60;;;12.60;44.40;;;;;;5011517;28;20385;-77
2021/10/15 05:48:36;;;;;;;41.30;18.83;;;12.60;42.70;;;;;;5011334;28;20439;-78
2021/10/15 05:51:01;;;;;;;35.97;20.70;;;12.60;43.20;;;;;;5010889;28;20416;-78
2021/10/15 05:53:27;;;;;;;49.63;28.55;;;12.60;42.80;;;;;;5003383;28;20394;-78
2021/10/15 05:56:24;;;;;;;114.03;68.05;;;12.60;43.00;;;;;;5013286;28;20408;-78
2021/10/15 05:58:50;;;;;;;62.78;26.17;;;12.60;43.70;;;;;;5016612;28;20416;-80
2021/10/15 06:01:27;;;;;;;21.77;10.15;;;12.60;42.60;;;;;;5019170;28;20404;-79
2021/10/15 06:14:45;;;;;;;18.30;7.80;;;12.60;43.20;;;;;;5012721;28;21150;-78
2021/10/15 06:17:12;;;;;;;18.70;9.07;;;12.50;43.50;;;;;;5011921;28;20428;-78
2021/10/15 06:19:44;;;;;;;12.57;7.10;;;12.60;43.40;;;;;;5010351;28;20660;-75
2021/10/15 06:22:11;;;;;;;18.27;8.68;;;12.50;43.90;;;;;;5000256;28;20492;-74
2021/10/15 06:24:36;;;;;;;17.50;8.40;;;12.50;44.00;;;;;;4995258;28;20402;-74
2021/10/15 06:27:02;;;;;;;15.20;8.60;;;12.60;43.90;;;;;;5009376;28;20912;-71
2021/10/15 06:29:27;;;;;;;23.33;9.90;;;12.60;43.80;;;;;;5010407;28;20684;-76
2021/10/15 06:31:53;;;;;;;16.70;8.43;;;12.70;44.20;;;;;;5007775;28;20420;-76
2021/10/15 06:34:18;;;;;;;17.80;8.40;;;12.70;43.80;;;;;;5005499;28;20494;-77
2021/10/15 06:36:45;;;;;;;18.42;9.70;;;12.70;43.80;;;;;;5010240;28;20443;-73
2021/10/15 06:39:11;;;;;;;17.20;8.90;;;12.70;43.90;;;;;;5010988;28;20389;-73
2021/10/15 06:41:36;;;;;;;14.52;8.25;;;12.70;43.90;;;;;;5010384;28;20830;-76
2021/10/15 06:44:02;;;;;;;17.00;7.63;;;12.80;43.50;;;;;;5010382;28;20563;-77
2021/10/15 06:46:28;;;;;;;19.92;8.48;;;12.90;43.10;;;;;;5010407;28;20765;-76
2021/10/15 06:48:54;;;;;;;17.23;8.20;;;12.80;44.00;;;;;;5011097;28;20482;-78
2021/10/15 06:51:19;;;;;;;25.90;8.87;;;12.90;43.40;;;;;;5001590;28;20436;-79
2021/10/15 06:53:45;;;;;;;17.77;7.85;;;12.90;42.90;;;;;;5013920;28;20403;-79
2021/10/15 06:56:11;;;;;;;20.05;8.50;;;13.00;42.60;;;;;;5010710;28;20885;-78
2021/10/15 06:58:36;;;;;;;13.90;7.82;;;13.00;43.30;;;;;;5010316;28;20401;-77
2021/10/15 07:01:03;;;;;;;21.08;8.15;;;13.10;42.80;;;;;;5009385;28;20909;-76
2021/10/15 07:03:29;;;;;;;16.63;7.57;;;13.20;43.40;;;;;;5007571;28;20429;-76
2021/10/15 07:05:54;;;;;;;19.25;8.32;;;13.40;40.90;;;;;;5018024;28;20408;-76
2021/10/15 07:08:20;;;;;;;15.70;8.43;;;13.30;41.20;;;;;;5003706;28;20709;-74
2021/10/15 07:10:45;;;;;;;15.00;7.60;;;13.20;41.60;;;;;;5001969;28;20404;-74
2021/10/15 07:13:15;;;;;;;10.40;7.60;;;13.20;41.50;;;;;;5008201;28;20766;-75
2021/10/15 07:15:46;;;;;;;19.85;8.60;;;13.30;42.20;;;;;;5009844;28;20809;-76
2021/10/15 07:18:12;;;;;;;16.80;8.00;;;13.20;42.70;;;;;;5011363;28;21023;-74
2021/10/15 07:20:38;;;;;;;17.48;7.95;;;13.30;42.50;;;;;;5012645;28;20404;-74
2021/10/15 07:23:04;;;;;;;15.32;7.80;;;13.30;42.30;;;;;;5014495;28;20377;-75
2021/10/15 07:25:29;;;;;;;14.05;8.10;;;13.30;42.40;;;;;;5012454;28;20428;-75
2021/10/15 07:27:55;;;;;;;16.05;7.40;;;13.30;42.70;;;;;;5013903;28;20468;-76
2021/10/15 07:30:20;;;;;;;18.38;8.63;;;13.30;42.90;;;;;;5016922;28;20747;-76
2021/10/15 07:32:48;;;;;;;20.08;8.43;;;13.30;43.20;;;;;;5012819;28;20885;-75
2021/10/15 07:35:14;;;;;;;16.55;7.93;;;13.40;42.80;;;;;;5012773;28;20488;-76
2021/10/15 07:37:39;;;;;;;14.10;7.70;;;13.40;43.60;;;;;;5031164;28;20445;-75
2021/10/15 07:40:06;;;;;;;18.98;8.50;;;13.40;43.10;;;;;;5040231;28;20409;-73
2021/10/15 07:42:33;;;;;;;17.95;9.00;;;13.40;42.90;;;;;;5023617;28;20440;-73
2021/10/15 07:44:58;;;;;;;16.85;7.80;;;13.40;43.40;;;;;;5012623;28;20389;-74
2021/10/15 07:47:24;;;;;;;20.00;8.55;;;13.40;42.90;;;;;;5012885;28;20711;-74
2021/10/15 07:49:50;;;;;;;16.17;8.10;;;13.50;43.20;;;;;;5004543;28;20985;-73
2021/10/15 07:52:15;;;;;;;20.50;8.33;;;13.40;43.20;;;;;;5015244;28;20404;-73
2021/10/15 07:54:41;;;;;;;17.40;9.60;;;13.40;43.90;;;;;;5026093;28;20393;-73
2021/10/15 07:57:06;;;;;;;15.97;8.33;;;13.50;44.20;;;;;;5026100;28;20389;-73
2021/10/15 07:59:32;;;;;;;16.83;8.10;;;13.50;43.90;;;;;;5026324;28;20893;-74
2021/10/15 08:01:58;;;;;;;14.45;7.95;;;13.60;43.40;;;;;;5010053;28;20510;-75
2021/10/15 08:04:23;;;;;;;21.20;8.67;;;13.60;43.30;;;;;;5011950;28;20403;-73
2021/10/15 08:06:50;;;;;;;17.02;8.45;;;13.50;43.80;;;;;;5012008;28;20389;-74
2021/10/15 08:09:16;;;;;;;16.38;8.50;;;13.50;44.20;;;;;;5011913;28;20401;-73
2021/10/15 08:11:42;;;;;;;13.00;8.75;;;13.50;44.40;;;;;;5012389;28;20912;-74
2021/10/15 08:14:07;;;;;;;18.57;8.67;;;13.50;44.60;;;;;;5013297;28;20495;-74
2021/10/15 08:16:33;;;;;;;16.30;8.20;;;13.50;44.20;;;;;;5012611;28;20947;-74
2021/10/15 08:18:59;;;;;;;15.32;8.82;;;13.60;44.10;;;;;;5011761;28;20462;-74
2021/10/15 08:21:24;;;;;;;18.17;8.05;;;13.60;44.30;;;;;;5012233;28;20434;-74
2021/10/15 08:23:50;;;;;;;16.00;8.60;;;13.60;44.20;;;;;;5026550;28;20424;-74
2021/10/15 08:26:15;;;;;;;17.20;8.60;;;13.70;44.40;;;;;;5012527;28;20493;-74
2021/10/15 08:28:42;;;;;;;16.63;8.93;;;13.90;42.80;;;;;;5011169;28;20404;-74
2021/10/15 08:31:08;;;;;;;14.32;8.63;;;14.00;42.40;;;;;;5026523;28;20391;-74
2021/10/15 08:33:34;;;;;;;21.13;8.77;;;14.00;42.40;;;;;;5025486;28;20488;-74
2021/10/15 08:35:59;;;;;;;17.58;9.00;;;14.10;41.90;;;;;;5012343;28;20397;-74
2021/10/15 08:38:25;;;;;;;21.42;8.88;;;14.20;41.30;;;;;;5011940;28;20779;-74
2021/10/15 08:40:51;;;;;;;18.02;8.70;;;14.20;41.90;;;;;;5003307;28;20398;-74
2021/10/15 08:43:16;;;;;;;18.00;9.75;;;14.20;41.50;;;;;;5001176;28;20404;-73
2021/10/15 08:45:42;;;;;;;15.87;8.40;;;14.30;42.10;;;;;;5011918;28;20852;-73
2021/10/15 08:48:09;;;;;;;19.25;9.70;;;14.40;41.20;;;;;;5010640;28;20925;-73
2021/10/15 08:50:35;;;;;;;20.13;9.27;;;14.50;40.70;;;;;;5011778;28;20467;-72
2021/10/15 08:53:02;;;;;;;17.40;9.30;;;14.50;40.50;;;;;;5011753;28;20404;-73
2021/10/15 08:55:29;;;;;;;17.92;9.00;;;14.50;40.70;;;;;;5007207;28;20456;-73
2021/10/15 08:57:58;;;;;;;16.90;9.77;;;14.40;41.40;;;;;;5005408;28;20471;-73
2021/10/15 09:00:37;;;;;;;15.60;8.73;;;14.30;41.90;;;;;;5009947;28;20418;-74
2021/10/15 09:03:18;;;;;;;17.63;9.47;;;14.30;42.60;;;;;;5010859;28;20436;-74
2021/10/15 09:06:07;;;;;;;16.60;9.60;;;14.10;44.30;;;;;;5011454;28;20465;-74
2021/10/15 09:08:55;;;;;;;17.58;10.27;;;14.00;47.10;;;;;;5010235;28;20396;-74
2021/10/15 09:11:32;;;;;;;18.93;10.13;;;14.00;50.10;;;;;;5007941;28;20420;-74
2021/10/15 09:14:28;;;;;;;20.52;11.80;;;13.70;54.80;;;;;;5010644;28;20400;-74
2021/10/15 09:16:56;;;;;;;21.60;11.55;;;13.70;58.10;;;;;;5014482;28;20402;-74
2021/10/15 09:19:34;;;;;;;17.98;11.00;;;13.70;61.60;;;;;;5013089;28;20474;-75
2021/10/15 09:22:07;;;;;;;21.35;12.30;;;13.70;64.10;;;;;;5007912;28;20471;-75
2021/10/15 09:24:39;;;;;;;20.77;12.30;;;13.40;70.40;;;;;;5006764;28;20401;-74
2021/10/15 09:27:40;;;;;;;22.85;13.20;;;13.20;75.90;;;;;;5009976;28;20459;-74
2021/10/15 09:30:12;;;;;;;28.55;15.20;;;13.20;78.50;;;;;;5010354;28;20416;-75
2021/10/15 09:32:40;;;;;;;29.77;14.95;;;13.30;81.60;;;;;;5010809;28;20421;-74
2021/10/15 09:35:07;;;;;;;24.80;13.45;;;13.30;84.70;;;;;;5010808;28;20930;-74
2021/10/15 09:37:35;;;;;;;23.55;14.38;;;13.30;81.20;;;;;;5005141;28;20409;-74
2021/10/15 09:40:05;;;;;;;21.45;13.43;;;13.40;77.90;;;;;;5011009;28;20401;-74
2021/10/15 09:42:33;;;;;;;21.38;13.48;;;13.70;74.60;;;;;;5010066;28;20497;-74
2021/10/15 09:45:12;;;;;;;22.27;13.60;;;13.70;71.60;;;;;;5010714;28;20393;-74
2021/10/15 09:47:38;;;;;;;22.20;13.50;;;13.80;71.80;;;;;;5012023;28;20423;-74
2021/10/15 09:50:07;;;;;;;21.75;13.30;;;13.80;72.00;;;;;;5012743;28;20395;-75
2021/10/15 09:52:57;;;;;;;25.67;14.10;;;13.70;71.90;;;;;;5012943;28;20408;-75
2021/10/15 09:55:31;;;;;;;21.83;13.80;;;13.60;73.70;;;;;;5009454;28;20404;-75
2021/10/15 09:58:09;;;;;;;26.08;14.48;;;13.40;77.70;;;;;;5011394;28;20409;-76
2021/10/15 10:00:34;;;;;;;23.55;14.90;;;13.40;80.70;;;;;;5010121;28;20439;-75
2021/10/15 10:03:01;;;;;;;26.73;15.13;;;13.40;82.20;;;;;;5010109;28;20440;-77
2021/10/15 10:05:28;;;;;;;27.07;17.10;;;13.50;80.40;;;;;;5007989;28;20404;-77
2021/10/15 10:07:55;;;;;;;26.38;16.88;;;13.50;82.20;;;;;;5010602;28;20396;-74
2021/10/15 10:10:27;;;;;;;24.77;16.63;;;13.40;85.50;;;;;;5010451;28;20472;-74
2021/10/15 10:12:54;;;;;;;25.40;14.27;;;13.30;85.30;;;;;;5012254;28;20485;-76
2021/10/15 10:15:23;;;;;;;16.00;10.38;;;13.10;86.00;;;;;;5006480;28;20481;-74
2021/10/15 10:21:01;;;;;;;14.30;8.35;;;12.90;85.40;;;;;;5009435;28;20397;-74
2021/10/15 10:23:44;;;;;;;13.90;8.57;;;12.90;83.30;;;;;;5003366;28;20639;-75
2021/10/15 10:26:12;;;;;;;17.00;8.90;;;13.00;81.00;;;;;;4998265;28;20474;-76
2021/10/15 10:28:39;;;;;;;11.60;7.80;;;13.20;81.60;;;;;;5011570;28;20385;-77
2021/10/15 10:31:07;;;;;;;12.10;6.88;;;13.40;71.60;;;;;;5010432;28;20410;-74
2021/10/15 10:33:53;;;;;;;9.93;6.53;;;13.60;72.90;;;;;;5010086;28;20428;-75
2021/10/15 10:36:19;;;;;;;7.22;5.10;;;13.60;71.20;;;;;;4997982;28;20404;-75
2021/10/15 10:38:44;;;;;;;6.00;4.38;;;13.50;66.90;;;;;;5011154;28;20881;-74
2021/10/15 10:41:16;;;;;;;4.50;3.78;;;13.40;67.30;;;;;;5005600;28;20439;-77
2021/10/15 10:43:45;;;;;;;5.20;3.20;;;13.50;66.00;;;;;;5010274;28;20912;-76
2021/10/15 10:46:16;;;;;;;4.85;2.53;;;13.70;62.70;;;;;;5010308;28;20396;-76
2021/10/15 10:48:53;;;;;;;6.20;1.88;;;13.60;60.40;;;;;;5008233;28;20428;-75
2021/10/15 10:51:20;;;;;;;2.55;1.30;;;13.50;55.10;;;;;;5010710;28;20881;-76
2021/10/15 10:54:04;;;;;;;6.15;1.48;;;13.50;54.30;;;;;;4999623;28;20469;-76
2021/10/15 10:56:38;;;;;;;1.65;1.20;;;13.60;53.80;;;;;;5014573;28;20411;-78
2021/10/15 10:59:18;;;;;;;2.23;1.60;;;13.50;55.50;;;;;;5014441;28;20393;-76
2021/10/15 11:01:54;;;;;;;4.63;1.83;;;13.60;54.00;;;;;;5010506;28;20412;-75
2021/10/15 11:04:31;;;;;;;3.95;1.60;;;13.60;55.40;;;;;;4999247;28;20448;-76
2021/10/15 11:07:00;;;;;;;3.97;1.43;;;13.60;54.10;;;;;;5018795;28;20405;-76
2021/10/15 11:09:38;;;;;;;2.20;1.55;;;13.70;55.10;;;;;;5015398;28;20420;-75
2021/10/15 11:12:05;;;;;;;3.75;1.80;;;13.70;51.90;;;;;;5012093;28;20396;-78
2021/10/15 11:14:49;;;;;;;2.00;1.20;;;13.90;53.80;;;;;;5012123;28;21605;-75
2021/10/15 11:17:15;;;;;;;3.00;1.35;;;13.90;51.40;;;;;;5012764;28;20408;-74
2021/10/15 11:19:41;;;;;;;2.70;1.23;;;13.90;52.50;;;;;;5014403;28;20868;-73
2021/10/15 11:22:07;;;;;;;1.80;1.40;;;14.10;51.90;;;;;;5013659;28;20404;-74
2021/10/15 11:24:33;;;;;;;2.95;1.20;;;14.10;48.20;;;;;;5014383;28;20393;-75
2021/10/15 11:26:59;;;;;;;2.00;1.10;;;14.10;47.90;;;;;;5014263;28;20451;-75
2021/10/15 11:29:24;;;;;;;3.20;1.55;;;14.20;47.90;;;;;;5012563;28;20408;-75
2021/10/15 11:31:58;;;;;;;3.78;1.20;;;14.30;45.50;;;;;;5012852;28;20405;-74
2021/10/15 11:34:24;;;;;;;2.30;1.45;;;14.50;44.20;;;;;;5013821;28;20424;-75
2021/10/15 11:37:05;;;;;;;1.98;1.20;;;14.90;42.80;;;;;;5011770;28;20508;-74
2021/10/15 11:39:31;;;;;;;2.22;1.02;;;14.70;38.90;;;;;;5013292;28;20454;-75
2021/10/15 11:41:56;;;;;;;1.90;1.60;;;14.40;41.60;;;;;;5013287;28;20416;-75
2021/10/15 11:44:33;;;;;;;7.17;1.70;;;14.30;42.10;;;;;;5014463;28;20397;-74
2021/10/15 11:46:59;;;;;;;5.72;1.40;;;14.50;42.30;;;;;;5013570;28;20416;-74
2021/10/15 11:49:24;;;;;;;4.17;1.73;;;14.60;39.90;;;;;;5013051;28;20408;-74
2021/10/15 11:51:57;;;;;;;8.73;2.70;;;14.70;39.90;;;;;;5011199;28;20549;-75
2021/10/15 11:54:23;;;;;;;6.90;2.67;;;14.70;38.10;;;;;;5013900;28;20491;-73
2021/10/15 11:56:48;;;;;;;5.60;2.10;;;14.80;37.80;;;;;;5013287;28;20535;-74
2021/10/15 11:59:14;;;;;;;6.23;2.30;;;14.90;38.40;;;;;;5012754;28;20404;-75
2021/10/15 12:01:40;;;;;;;5.50;2.50;;;14.90;39.10;;;;;;5007736;28;20980;-75
2021/10/15 12:04:11;;;;;;;5.80;2.37;;;14.80;38.00;;;;;;5013263;28;20741;-74
2021/10/15 12:06:41;;;;;;;8.00;1.80;;;14.50;36.40;;;;;;5012448;28;20411;-75
2021/10/15 12:09:08;;;;;;;11.20;2.67;;;14.10;38.30;;;;;;5007649;28;20413;-72
2021/10/15 12:11:45;;;;;;;7.00;2.67;;;14.10;40.60;;;;;;5011380;28;20409;-73
2021/10/15 12:14:16;;;;;;;11.57;3.40;;;14.20;39.50;;;;;;5004496;28;20401;-75
2021/10/15 12:16:42;;;;;;;7.72;2.78;;;14.20;38.60;;;;;;5004999;28;20394;-74
2021/10/15 12:19:28;;;;;;;10.55;3.60;;;14.30;36.40;;;;;;5007613;28;20407;-75
2021/10/15 12:22:11;;;;;;;11.00;3.37;;;14.40;37.50;;;;;;5006075;28;20483;-72
2021/10/15 12:24:40;;;;;;;9.57;2.85;;;14.40;35.00;;;;;;5007956;28;20381;-75
2021/10/15 12:27:14;;;;;;;6.40;2.50;;;14.30;37.40;;;;;;5018002;28;20496;-75
2021/10/15 12:29:48;;;;;;;11.00;2.45;;;14.40;37.60;;;;;;5015837;28;20413;-74
2021/10/15 12:32:33;;;;;;;8.90;2.90;;;14.40;36.40;;;;;;5012862;28;20389;-75
2021/10/15 12:35:15;;;;;;;8.82;3.05;;;14.40;36.20;;;;;;5012942;28;20764;-77
2021/10/15 12:37:51;;;;;;;6.32;3.13;;;14.50;36.10;;;;;;5013652;28;20392;-75
2021/10/15 12:40:21;;;;;;;10.05;3.30;;;14.40;33.90;;;;;;5000286;28;20424;-75
2021/10/15 12:43:18;;;;;;;11.85;3.22;;;14.50;34.70;;;;;;5018686;28;20408;-75
2021/10/15 12:45:50;;;;;;;8.60;3.78;;;14.80;33.60;;;;;;5019046;28;20419;-75
2021/10/15 12:48:21;;;;;;;10.93;3.25;;;15.20;32.70;;;;;;5015117;28;20417;-76
2021/10/15 12:51:04;;;;;;;12.67;3.50;;;15.40;30.40;;;;;;5012423;28;20437;-77
2021/10/15 12:53:38;;;;;;;8.93;3.30;;;15.50;29.00;;;;;;5004513;28;20388;-77
2021/10/15 12:56:10;;;;;;;10.73;3.70;;;15.60;29.40;;;;;;5010170;28;20532;-76